AUA470 LOWS-EDDL
Flight info
| Callsign | AUA470 |
|---|---|
| Flight time | N/A |
| Altitude | 36000 |
| Route | INROM DCT SIMBA Y700 NENUM DCT EPTEU L604 MOOCE DCT TESDU DCT AMETU T852 EKSAK/N0433F260 T852 KULIX/N0420F240 T852 TINSA T854 DOMUX DOMUX1A |
| Aircraft | E195/M-SDE3GILORVW/S |
Departure
| Time | 2026-04-27 13:36 |
|---|---|
| Airport | Salzburg Airport (LOWS) |
Arrival
| Time | N/A |
|---|---|
| Airport | Düsseldorf Airport (EDDL) |
| Time | Latitude | Longitude | Altitude | Speed | Heading |
|---|---|---|---|---|---|
| 2026-04-27 13:20 | 47.79093 | 12.99966 | 1423 ft | 0 kts | 280° |
| 2026-04-27 13:29 | 47.79092 | 12.99975 | 1421 ft | 4 kts | 281° |
| 2026-04-27 13:29 | 47.79086 | 13.00013 | 1420 ft | 2 kts | 282° |
| 2026-04-27 13:29 | 47.79081 | 13.00046 | 1420 ft | 4 kts | 296° |
| 2026-04-27 13:29 | 47.79066 | 13.00078 | 1420 ft | 4 kts | 322° |
| 2026-04-27 13:30 | 47.79050 | 13.00094 | 1421 ft | 1 kts | 337° |
| 2026-04-27 13:30 | 47.79047 | 13.00096 | 1420 ft | 0 kts | 337° |
| 2026-04-27 13:32 | 47.79052 | 13.00093 | 1421 ft | 2 kts | 337° |
| 2026-04-27 13:32 | 47.79071 | 13.00080 | 1420 ft | 4 kts | 337° |
| 2026-04-27 13:32 | 47.79105 | 13.00059 | 1439 ft | 6 kts | 336° |
| 2026-04-27 13:32 | 47.79149 | 13.00030 | 1420 ft | 8 kts | 336° |
| 2026-04-27 13:33 | 47.79208 | 12.99991 | 1421 ft | 10 kts | 336° |
| 2026-04-27 13:33 | 47.79281 | 12.99949 | 1421 ft | 12 kts | 347° |
| 2026-04-27 13:33 | 47.79345 | 13.00024 | 1421 ft | 13 kts | 60° |
| 2026-04-27 13:33 | 47.79316 | 13.00135 | 1421 ft | 14 kts | 148° |
| 2026-04-27 13:34 | 47.79220 | 13.00199 | 1420 ft | 17 kts | 157° |
| 2026-04-27 13:34 | 47.79104 | 13.00273 | 1419 ft | 19 kts | 156° |
| 2026-04-27 13:34 | 47.78972 | 13.00356 | 1418 ft | 22 kts | 157° |
| 2026-04-27 13:34 | 47.78825 | 13.00450 | 1418 ft | 24 kts | 157° |
| 2026-04-27 13:35 | 47.78668 | 13.00546 | 1420 ft | 25 kts | 157° |
| 2026-04-27 13:35 | 47.78505 | 13.00650 | 1420 ft | 26 kts | 157° |
| 2026-04-27 13:35 | 47.78331 | 13.00760 | 1420 ft | 28 kts | 158° |
| 2026-04-27 13:35 | 47.78187 | 13.00940 | 1416 ft | 30 kts | 99° |
| 2026-04-27 13:36 | 47.78327 | 13.01030 | 1419 ft | 28 kts | 337° |
| 2026-04-27 13:36 | 47.78622 | 13.00844 | 1419 ft | 82 kts | 337° |
| 2026-04-27 13:36 | 47.79405 | 13.00352 | 1438 ft | 157 kts | 339° |
| 2026-04-27 13:36 | 47.80523 | 12.99606 | 2096 ft | 187 kts | 335° |
| 2026-04-27 13:37 | 47.81784 | 12.98726 | 3127 ft | 215 kts | 336° |
| 2026-04-27 13:37 | 47.83060 | 12.97864 | 3766 ft | 178 kts | 341° |
| 2026-04-27 13:37 | 47.84238 | 12.97887 | 4265 ft | 181 kts | 26° |
| 2026-04-27 13:37 | 47.85105 | 12.99245 | 4921 ft | 195 kts | 62° |
| 2026-04-27 13:38 | 47.85823 | 13.01064 | 5489 ft | 212 kts | 51° |
| 2026-04-27 13:38 | 47.86826 | 13.02765 | 6103 ft | 227 kts | 43° |
| 2026-04-27 13:38 | 47.88004 | 13.04457 | 6726 ft | 244 kts | 40° |
| 2026-04-27 13:38 | 47.89363 | 13.06106 | 7276 ft | 261 kts | 34° |
| 2026-04-27 13:39 | 47.90872 | 13.07763 | 7835 ft | 277 kts | 34° |
| 2026-04-27 13:39 | 47.92483 | 13.09504 | 8407 ft | 293 kts | 34° |
| 2026-04-27 13:39 | 47.94157 | 13.11327 | 8984 ft | 301 kts | 34° |
| 2026-04-27 13:39 | 47.95848 | 13.13169 | 9545 ft | 303 kts | 34° |
| 2026-04-27 13:40 | 47.97557 | 13.15016 | 10087 ft | 305 kts | 34° |
| 2026-04-27 13:40 | 47.99375 | 13.16556 | 10560 ft | 303 kts | 15° |
| 2026-04-27 13:40 | 48.01471 | 13.16792 | 11054 ft | 300 kts | 350° |
| 2026-04-27 13:40 | 48.03521 | 13.16335 | 11578 ft | 302 kts | 349° |
| 2026-04-27 13:41 | 48.05619 | 13.15848 | 12096 ft | 310 kts | 348° |
| 2026-04-27 13:41 | 48.07793 | 13.15275 | 12648 ft | 323 kts | 348° |
| 2026-04-27 13:41 | 48.10038 | 13.14636 | 13201 ft | 335 kts | 347° |
| 2026-04-27 13:41 | 48.12354 | 13.13921 | 13759 ft | 345 kts | 344° |
| 2026-04-27 13:42 | 48.14688 | 13.12894 | 14283 ft | 354 kts | 342° |
| 2026-04-27 13:42 | 48.17082 | 13.11837 | 14784 ft | 363 kts | 341° |
| 2026-04-27 13:42 | 48.19514 | 13.10708 | 15319 ft | 369 kts | 341° |
| 2026-04-27 13:42 | 48.21985 | 13.09576 | 15901 ft | 374 kts | 341° |
| 2026-04-27 13:43 | 48.24488 | 13.08412 | 16489 ft | 378 kts | 341° |
| 2026-04-27 13:43 | 48.26992 | 13.07260 | 17073 ft | 382 kts | 341° |
| 2026-04-27 13:43 | 48.29550 | 13.06073 | 17682 ft | 386 kts | 341° |
| 2026-04-27 13:43 | 48.32126 | 13.04880 | 18297 ft | 390 kts | 341° |
| 2026-04-27 13:44 | 48.34736 | 13.03674 | 18864 ft | 394 kts | 341° |
| 2026-04-27 13:44 | 48.37377 | 13.02448 | 19417 ft | 396 kts | 341° |
| 2026-04-27 13:44 | 48.40005 | 13.01232 | 19972 ft | 397 kts | 341° |
| 2026-04-27 13:44 | 48.42653 | 12.99998 | 20527 ft | 399 kts | 340° |
| 2026-04-27 13:45 | 48.45312 | 12.98765 | 21101 ft | 401 kts | 340° |
| 2026-04-27 13:45 | 48.47990 | 12.97514 | 21688 ft | 403 kts | 340° |
| 2026-04-27 13:45 | 48.50672 | 12.96287 | 22279 ft | 404 kts | 341° |
| 2026-04-27 13:45 | 48.53403 | 12.95189 | 22895 ft | 405 kts | 343° |
| 2026-04-27 13:46 | 48.56169 | 12.94329 | 23496 ft | 406 kts | 348° |
| 2026-04-27 13:46 | 48.58958 | 12.93687 | 24085 ft | 406 kts | 347° |
| 2026-04-27 13:46 | 48.61720 | 12.93069 | 24604 ft | 406 kts | 348° |
| 2026-04-27 13:46 | 48.64522 | 12.92452 | 25143 ft | 406 kts | 348° |
| 2026-04-27 13:47 | 48.67354 | 12.91837 | 25705 ft | 407 kts | 348° |
| 2026-04-27 13:47 | 48.70120 | 12.91230 | 26259 ft | 406 kts | 348° |
| 2026-04-27 13:47 | 48.72910 | 12.90623 | 26826 ft | 404 kts | 348° |
| 2026-04-27 13:47 | 48.75694 | 12.90012 | 27407 ft | 401 kts | 348° |
| 2026-04-27 13:48 | 48.78448 | 12.89409 | 27990 ft | 398 kts | 348° |
| 2026-04-27 13:48 | 48.81189 | 12.88808 | 28604 ft | 396 kts | 348° |
| 2026-04-27 13:48 | 48.83905 | 12.88209 | 29217 ft | 393 kts | 348° |
| 2026-04-27 13:48 | 48.86600 | 12.87618 | 29848 ft | 390 kts | 348° |
| 2026-04-27 13:49 | 48.89273 | 12.87027 | 30454 ft | 387 kts | 348° |
| 2026-04-27 13:49 | 48.91928 | 12.86444 | 30993 ft | 383 kts | 348° |
| 2026-04-27 13:49 | 48.94560 | 12.85861 | 31548 ft | 378 kts | 348° |
| 2026-04-27 13:49 | 48.97115 | 12.85297 | 32102 ft | 373 kts | 348° |
| 2026-04-27 13:50 | 48.99662 | 12.84734 | 32697 ft | 367 kts | 347° |
| 2026-04-27 13:50 | 49.02123 | 12.83919 | 33282 ft | 357 kts | 338° |
| 2026-04-27 13:50 | 49.04350 | 12.82391 | 33876 ft | 347 kts | 326° |
| 2026-04-27 13:50 | 49.06248 | 12.80209 | 34362 ft | 338 kts | 314° |
| 2026-04-27 13:51 | 49.07730 | 12.77480 | 34852 ft | 331 kts | 302° |
| 2026-04-27 13:51 | 49.08721 | 12.74361 | 35328 ft | 326 kts | 289° |
| 2026-04-27 13:51 | 49.09234 | 12.71016 | 35814 ft | 320 kts | 282° |
| 2026-04-27 13:51 | 49.09585 | 12.67671 | 36071 ft | 322 kts | 281° |
| 2026-04-27 13:52 | 49.10301 | 12.60814 | 36190 ft | 332 kts | 282° |
| 2026-04-27 13:52 | 49.11188 | 12.53774 | 36210 ft | 345 kts | 284° |
| 2026-04-27 13:53 | 49.12325 | 12.46493 | 36226 ft | 358 kts | 287° |
| 2026-04-27 13:53 | 49.12999 | 12.42793 | 36217 ft | 364 kts | 288° |
| 2026-04-27 13:54 | 49.14949 | 12.35634 | 36214 ft | 375 kts | 303° |
| 2026-04-27 13:54 | 49.18328 | 12.29408 | 36226 ft | 387 kts | 313° |
| 2026-04-27 13:55 | 49.22288 | 12.23630 | 36208 ft | 399 kts | 316° |
| 2026-04-27 13:55 | 49.26504 | 12.17911 | 36198 ft | 409 kts | 318° |
| 2026-04-27 13:56 | 49.31147 | 12.12689 | 36202 ft | 418 kts | 322° |